Time;durP1;ratioP1;P1;durP2;ratioP2;P2;SDS_P1;SDS_P2;PMS_P1;PMS_P2;Temp;Humidity;BMP_temperature;BMP_pressure;BME280_temperature;BME280_humidity;BME280_pressure;Samples;Min_cycle;Max_cycle;Signal;HPM_P1;HPM_P2
2022/05/29 00:02:17;;;;;;;0.40;0.30;;;;;;;19.47;100.00;94936.16;5093182;28;20508;-57
2022/05/29 00:04:46;;;;;;;0.40;0.30;;;;;;;19.46;100.00;94923.81;5093226;28;20412;-57
2022/05/29 00:07:17;;;;;;;0.50;0.50;;;;;;;19.08;100.00;94920.56;5093366;28;20428;-59
2022/05/29 00:09:48;;;;;;;1.17;0.77;;;;;;;18.84;100.00;94926.69;5093097;28;20839;-58
2022/05/29 00:12:20;;;;;;;0.47;0.30;;;;;;;19.12;100.00;94929.56;5092901;28;20464;-58
2022/05/29 00:14:49;;;;;;;1.27;1.03;;;;;;;19.38;100.00;94973.13;5093548;28;20425;-58
2022/05/29 00:17:19;;;;;;;0.40;0.30;;;;;;;19.22;100.00;94975.59;5093599;28;20428;-58
2022/05/29 00:19:49;;;;;;;1.13;1.13;;;;;;;18.84;100.00;94895.25;5092882;28;21008;-58
2022/05/29 00:22:21;;;;;;;0.60;0.50;;;;;;;18.45;100.00;94889.56;5092760;28;20428;-59
2022/05/29 00:24:51;;;;;;;0.47;0.33;;;;;;;18.69;100.00;94901.22;5111723;28;20529;-58
2022/05/29 00:27:21;;;;;;;0.40;0.30;;;;;;;18.77;100.00;94921.81;5112136;28;20514;-59
2022/05/29 00:29:49;;;;;;;0.97;0.87;;;;;;;18.65;100.00;94897.63;5111919;28;20423;-58
2022/05/29 00:32:18;;;;;;;0.80;0.80;;;;;;;18.87;100.00;94921.41;5111895;28;20416;-58
2022/05/29 00:34:46;;;;;;;0.60;0.60;;;;;;;18.84;100.00;94930.16;5111781;28;20424;-58
2022/05/29 00:37:15;;;;;;;0.97;0.93;;;;;;;18.87;100.00;94942.91;5111381;28;20526;-58
2022/05/29 00:39:44;;;;;;;0.40;0.30;;;;;;;18.93;100.00;94930.84;5111573;28;20522;-59
2022/05/29 00:42:15;;;;;;;0.97;0.70;;;;;;;18.47;100.00;94842.53;5111402;28;20951;-59
2022/05/29 00:44:45;;;;;;;0.40;0.40;;;;;;;19.01;100.00;94916.56;5111471;28;20477;-59
2022/05/29 00:47:16;;;;;;;0.57;0.40;;;;;;;19.05;100.00;94910.53;5111745;28;20452;-59
2022/05/29 00:49:47;;;;;;;0.50;0.50;;;;;;;18.94;100.00;94913.63;5111613;28;20522;-59
2022/05/29 00:52:18;;;;;;;0.70;0.60;;;;;;;18.96;100.00;94924.81;5111420;28;20427;-58
2022/05/29 00:54:53;;;;;;;0.40;0.33;;;;;;;18.98;100.00;94919.91;5111323;28;20443;-59
2022/05/29 00:57:31;;;;;;;0.40;0.30;;;;;;;19.08;100.00;94942.06;5111350;28;20943;-59
2022/05/29 01:00:05;;;;;;;0.40;0.30;;;;;;;18.89;100.00;94950.63;5111057;28;20494;-58
2022/05/29 01:02:34;;;;;;;0.40;0.30;;;;;;;18.80;100.00;94931.91;5111126;28;20518;-59
2022/05/29 01:05:04;;;;;;;0.40;0.30;;;;;;;18.95;100.00;94922.44;5111368;28;20420;-59
2022/05/29 01:07:33;;;;;;;0.53;0.50;;;;;;;19.11;100.00;94915.34;5111130;28;20463;-59
2022/05/29 01:10:03;;;;;;;0.97;0.30;;;;;;;18.99;100.00;94881.19;5111219;28;20470;-58
2022/05/29 01:12:43;;;;;;;0.40;0.40;;;;;;;19.19;100.00;94916.38;5111427;28;20898;-58
2022/05/29 01:15:24;;;;;;;0.60;0.40;;;;;;;18.97;100.00;94931.75;5111303;28;20462;-58
2022/05/29 01:18:01;;;;;;;0.40;0.30;;;;;;;18.82;100.00;94927.00;5111624;28;20439;-59
2022/05/29 01:21:11;;;;;;;0.50;0.30;;;;;;;18.80;100.00;94882.78;5110645;28;20911;-58
2022/05/29 01:24:12;;;;;;;0.60;0.40;;;;;;;18.97;100.00;94894.16;5111099;28;20467;-58
2022/05/29 01:27:05;;;;;;;0.40;0.20;;;;;;;18.13;100.00;94806.03;5068388;28;20446;-58
2022/05/29 01:30:05;;;;;;;0.50;0.30;;;;;;;19.00;100.00;94908.81;5111146;28;20480;-59
2022/05/29 01:32:39;;;;;;;1.07;0.93;;;;;;;18.80;100.00;94905.06;5110906;28;20427;-58
2022/05/29 01:35:12;;;;;;;0.40;0.40;;;;;;;18.65;100.00;94905.69;5110750;28;20464;-58
2022/05/29 01:37:50;;;;;;;0.40;0.30;;;;;;;18.75;100.00;94905.25;5111246;28;20881;-58
2022/05/29 01:40:27;;;;;;;1.07;0.93;;;;;;;18.71;100.00;94907.06;5110897;28;20511;-57
2022/05/29 01:43:03;;;;;;;0.57;0.30;;;;;;;18.87;100.00;94912.59;5110684;28;20462;-57
2022/05/29 01:45:54;;;;;;;0.50;0.30;;;;;;;18.93;100.00;94893.25;5109844;28;20510;-57
2022/05/29 01:48:35;;;;;;;0.60;0.50;;;;;;;18.98;100.00;94889.56;5110864;28;20857;-57
2022/05/29 01:51:11;;;;;;;14.07;2.10;;;;;;;18.98;100.00;94909.16;5110829;28;20477;-59
2022/05/29 01:53:43;;;;;;;0.70;0.70;;;;;;;18.85;100.00;94883.38;5109697;28;20445;-57
2022/05/29 01:56:18;;;;;;;0.90;0.60;;;;;;;19.00;100.00;94882.75;5113884;28;20483;-57
2022/05/29 01:58:54;;;;;;;0.70;0.40;;;;;;;18.91;100.00;94879.38;5114320;28;20427;-59
2022/05/29 02:01:30;;;;;;;2.30;1.67;;;;;;;19.01;100.00;94888.91;5114289;28;20466;-58
2022/05/29 02:04:04;;;;;;;0.40;0.30;;;;;;;18.66;100.00;94825.94;5115001;28;20471;-57
2022/05/29 02:09:22;;;;;;;1.10;1.03;;;;;;;19.00;100.00;94880.06;5113697;28;20608;-58
2022/05/29 02:11:54;;;;;;;0.40;0.30;;;;;;;18.99;100.00;94870.44;5114745;28;20467;-58
2022/05/29 02:14:28;;;;;;;0.50;0.33;;;;;;;18.96;100.00;94863.03;5114573;28;20968;-58
2022/05/29 02:17:04;;;;;;;5.17;0.40;;;;;;;18.97;100.00;94845.03;5114579;28;20442;-60
2022/05/29 02:19:37;;;;;;;0.40;0.30;;;;;;;18.97;100.00;94853.84;5114494;28;20492;-58
2022/05/29 02:22:09;;;;;;;8.43;0.47;;;;;;;18.58;100.00;94867.84;5114284;28;20462;-58
2022/05/29 02:24:43;;;;;;;0.50;0.47;;;;;;;18.04;100.00;94872.34;5114537;28;20470;-60
2022/05/29 02:27:20;;;;;;;0.50;0.30;;;;;;;18.29;100.00;94867.94;5113864;28;20470;-58
2022/05/29 02:29:49;;;;;;;0.73;0.73;;;;;;;18.54;100.00;94858.91;5114847;28;20537;-58
2022/05/29 02:32:26;;;;;;;0.47;0.37;;;;;;;18.42;100.00;94841.94;5114384;28;20529;-58
2022/05/29 02:35:07;;;;;;;0.67;0.53;;;;;;;18.54;100.00;94880.38;5113849;28;20469;-58
2022/05/29 02:37:43;;;;;;;0.40;0.20;;;;;;;18.59;100.00;94869.44;5113906;28;20506;-58
2022/05/29 02:40:22;;;;;;;0.40;0.30;;;;;;;18.70;100.00;94856.34;5114148;28;20509;-60
2022/05/29 02:43:04;;;;;;;0.50;0.30;;;;;;;18.76;100.00;94847.00;5114095;28;20952;-58
2022/05/29 02:45:38;;;;;;;0.67;0.67;;;;;;;18.76;100.00;94858.53;5113009;28;20443;-58
2022/05/29 02:48:17;;;;;;;0.40;0.30;;;;;;;18.64;100.00;94863.84;5114421;28;20545;-58
2022/05/29 02:50:53;;;;;;;0.40;0.30;;;;;;;18.63;100.00;94851.53;5114089;28;20446;-58
2022/05/29 02:53:24;;;;;;;0.50;0.30;;;;;;;18.74;100.00;94862.66;5114263;28;20480;-58
2022/05/29 02:55:53;;;;;;;0.70;0.70;;;;;;;18.80;100.00;94855.94;5114034;28;20427;-58
2022/05/29 02:58:23;;;;;;;0.40;0.20;;;;;;;18.83;100.00;94855.28;5112989;28;20963;-58
2022/05/29 03:01:03;;;;;;;0.40;0.20;;;;;;;18.73;100.00;94839.59;5113666;28;20489;-58
2022/05/29 03:03:43;;;;;;;0.40;0.30;;;;;;;18.81;100.00;94857.53;5113847;28;20446;-58
2022/05/29 03:06:25;;;;;;;0.50;0.40;;;;;;;18.59;100.00;94866.75;5095693;28;20896;-58
2022/05/29 03:09:07;;;;;;;0.83;0.40;;;;;;;18.52;100.00;94866.47;5113702;28;20440;-58
2022/05/29 03:11:41;;;;;;;0.50;0.30;;;;;;;18.59;100.00;94855.22;5113786;28;20435;-58
2022/05/29 03:14:22;;;;;;;0.77;0.60;;;;;;;18.63;100.00;94851.53;5113057;28;20427;-58
2022/05/29 03:17:06;;;;;;;0.40;0.30;;;;;;;17.70;100.00;94709.91;5113305;28;20483;-58
2022/05/29 03:19:47;;;;;;;0.60;0.50;;;;;;;18.39;100.00;94825.34;5095226;28;20492;-58
2022/05/29 03:22:21;;;;;;;0.40;0.30;;;;;;;18.61;100.00;94847.63;5113042;28;20516;-58
2022/05/29 03:25:01;;;;;;;0.40;0.30;;;;;;;18.69;100.00;94858.28;5094918;28;20465;-58
2022/05/29 03:27:34;;;;;;;0.57;0.57;;;;;;;18.60;100.00;94849.50;5112612;28;20518;-58
2022/05/29 03:30:09;;;;;;;0.50;0.40;;;;;;;18.27;100.00;94852.16;5113063;28;20466;-58
2022/05/29 03:32:39;;;;;;;0.50;0.50;;;;;;;18.25;100.00;94830.22;5112221;28;20804;-58
2022/05/29 03:35:22;;;;;;;0.40;0.30;;;;;;;18.46;100.00;94837.47;5112676;28;20440;-58
2022/05/29 03:37:51;;;;;;;3.30;0.40;;;;;;;18.63;100.00;94848.84;5112791;28;20900;-58
2022/05/29 03:40:20;;;;;;;0.50;0.30;;;;;;;18.76;100.00;94845.09;5112577;28;20435;-58
2022/05/29 03:42:49;;;;;;;0.70;0.70;;;;;;;18.82;100.00;94846.44;5113829;28;20547;-58
2022/05/29 03:45:17;;;;;;;0.43;0.37;;;;;;;18.85;100.00;94840.41;5112708;28;20431;-58
2022/05/29 03:47:46;;;;;;;5.03;0.50;;;;;;;18.89;100.00;94840.53;5112603;28;20427;-58
2022/05/29 03:50:19;;;;;;;0.50;0.30;;;;;;;18.91;100.00;94849.03;5112531;28;20492;-58
2022/05/29 03:52:48;;;;;;;0.50;0.30;;;;;;;18.95;100.00;94847.25;5112937;28;20450;-58
2022/05/29 03:55:20;;;;;;;0.40;0.30;;;;;;;18.71;100.00;94823.84;5112760;28;20467;-58
2022/05/29 03:57:49;;;;;;;0.40;0.30;;;;;;;18.90;100.00;94840.19;5112585;28;20462;-58
2022/05/29 04:00:19;;;;;;;0.50;0.40;;;;;;;18.99;100.00;94837.44;5112170;28;20515;-58
2022/05/29 04:02:48;;;;;;;0.40;0.30;;;;;;;18.63;100.00;94772.91;5112546;28;20546;-58
2022/05/29 04:05:21;;;;;;;0.40;0.27;;;;;;;19.08;100.00;94834.63;5112687;28;20432;-58
2022/05/29 04:13:26;;;;;;;0.40;0.20;;;;;;;19.14;100.00;94822.56;5112202;28;20462;-58
2022/05/29 04:15:55;;;;;;;0.50;0.40;;;;;;;19.12;100.00;94819.44;5111988;28;20428;-58
2022/05/29 04:18:23;;;;;;;1.37;0.93;;;;;;;19.11;100.00;94813.25;5111354;28;20652;-57
2022/05/29 04:20:53;;;;;;;1.73;1.63;;;;;;;19.21;100.00;94817.41;5111856;28;20435;-57
2022/05/29 04:23:22;;;;;;;0.40;0.30;;;;;;;19.29;100.00;94817.31;5112526;28;20517;-58
2022/05/29 04:25:51;;;;;;;0.40;0.30;;;;;;;19.23;100.00;94804.41;5112653;28;20500;-57
2022/05/29 04:28:19;;;;;;;0.40;0.20;;;;;;;19.12;100.00;94825.59;5112968;28;20496;-57
2022/05/29 04:30:48;;;;;;;0.83;0.83;;;;;;;19.25;100.00;94812.94;5112571;28;21093;-57
2022/05/29 04:33:26;;;;;;;0.40;0.30;;;;;;;19.31;100.00;94815.06;5112996;28;20500;-57
2022/05/29 04:35:57;;;;;;;0.40;0.40;;;;;;;19.48;100.00;94814.09;5112543;28;20463;-57
2022/05/29 04:38:27;;;;;;;0.70;0.30;;;;;;;19.67;100.00;94808.91;5112040;28;20465;-57
2022/05/29 04:40:57;;;;;;;0.47;0.27;;;;;;;19.66;100.00;94817.34;5112548;28;20428;-57
2022/05/29 04:43:26;;;;;;;0.70;0.50;;;;;;;19.71;100.00;94825.94;5112625;28;20558;-57
2022/05/29 04:45:56;;;;;;;0.60;0.60;;;;;;;19.74;100.00;94830.63;5112224;28;20446;-57
2022/05/29 04:48:24;;;;;;;0.40;0.40;;;;;;;19.74;100.00;94837.91;5112338;28;20466;-56
2022/05/29 04:51:00;;;;;;;0.80;0.53;;;;;;;19.92;100.00;94831.94;5112629;28;20427;-56
2022/05/29 04:53:30;;;;;;;0.40;0.30;;;;;;;19.36;100.00;94734.22;5111961;28;20493;-56
2022/05/29 04:56:00;;;;;;;0.70;0.40;;;;;;;19.83;100.00;94833.22;5112269;28;20514;-56
2022/05/29 04:58:30;;;;;;;0.60;0.60;;;;;;;19.84;100.00;94818.63;5112540;28;20428;-56
2022/05/29 05:00:58;;;;;;;0.40;0.30;;;;;;;20.08;100.00;94818.59;5112144;28;20514;-56
2022/05/29 05:03:29;;;;;;;6.23;0.77;;;;;;;19.65;100.00;94770.84;5112098;28;20479;-56
2022/05/29 05:06:00;;;;;;;0.60;0.40;;;;;;;20.15;100.00;94816.88;5111605;28;20423;-56
2022/05/29 05:08:28;;;;;;;0.50;0.50;;;;;;;20.23;100.00;94821.38;5111777;28;20914;-59
2022/05/29 05:10:57;;;;;;;0.40;0.40;;;;;;;20.27;100.00;94816.06;5111985;28;20448;-56
2022/05/29 05:13:25;;;;;;;0.93;0.50;;;;;;;20.00;100.00;94819.50;5112031;28;20458;-56
2022/05/29 05:16:00;;;;;;;0.50;0.50;;;;;;;20.08;100.00;94826.66;5112095;28;20502;-56
2022/05/29 05:18:29;;;;;;;0.50;0.43;;;;;;;20.13;100.00;94816.44;5112217;28;20792;-57
2022/05/29 05:20:57;;;;;;;0.40;0.30;;;;;;;20.27;100.00;94806.09;5111421;28;20466;-57
2022/05/29 05:23:28;;;;;;;2.10;0.87;;;;;;;20.09;100.00;94810.16;5111886;28;20552;-56
2022/05/29 05:25:57;;;;;;;0.40;0.30;;;;;;;20.33;100.00;94813.94;5112451;28;20863;-56
2022/05/29 05:28:27;;;;;;;0.60;0.60;;;;;;;19.94;100.00;94734.78;5111251;28;20428;-56
2022/05/29 05:30:55;;;;;;;0.40;0.30;;;;;;;20.64;100.00;94814.03;5116159;28;20423;-56
2022/05/29 05:33:24;;;;;;;0.60;0.40;;;;;;;20.74;100.00;94818.91;5116233;28;20458;-61
2022/05/29 05:35:53;;;;;;;0.73;0.47;;;;;;;20.72;100.00;94821.94;5116493;28;20428;-55
2022/05/29 05:38:22;;;;;;;0.40;0.40;;;;;;;20.66;100.00;94827.91;5116050;28;20453;-55
2022/05/29 05:40:52;;;;;;;0.50;0.40;;;;;;;20.90;100.00;94822.38;5115941;28;20495;-56
2022/05/29 05:43:20;;;;;;;0.50;0.30;;;;;;;21.13;100.00;94825.31;5115765;28;20952;-55
2022/05/29 05:45:49;;;;;;;0.80;0.80;;;;;;;20.96;100.00;94825.63;5116045;28;20423;-56
2022/05/29 05:48:17;;;;;;;0.40;0.30;;;;;;;21.01;100.00;94822.66;5115840;28;20514;-55
2022/05/29 05:50:47;;;;;;;1.00;0.90;;;;;;;21.32;100.00;94828.88;5116176;28;20452;-56
2022/05/29 05:53:16;;;;;;;0.50;0.40;;;;;;;21.52;100.00;94813.56;5115903;28;20515;-55
2022/05/29 05:55:44;;;;;;;4.50;1.13;;;;;;;21.61;100.00;94816.84;5115675;28;20470;-55
2022/05/29 05:58:14;;;;;;;0.83;0.70;;;;;;;21.87;100.00;94821.69;5115807;28;20510;-60
2022/05/29 06:00:44;;;;;;;0.40;0.30;;;;;;;22.20;100.00;94808.53;5115779;28;20495;-60
2022/05/29 06:03:13;;;;;;;0.60;0.60;;;;;;;22.33;100.00;94801.06;5116028;28;20531;-60
2022/05/29 06:05:42;;;;;;;0.50;0.40;;;;;;;22.02;100.00;94791.97;5116823;28;20929;-60
2022/05/29 06:08:11;;;;;;;0.70;0.70;;;;;;;21.93;100.00;94809.50;5116515;28;20459;-59
2022/05/29 06:10:39;;;;;;;2.00;1.37;;;;;;;22.36;100.00;94805.78;5115521;28;20819;-60
2022/05/29 06:13:08;;;;;;;1.27;1.27;;;;;;;22.52;100.00;94806.47;5117513;28;20461;-61
2022/05/29 06:15:46;;;;;;;1.10;0.93;;;;;;;22.17;100.00;94811.16;5117178;28;20418;-62
2022/05/29 06:18:16;;;;;;;0.60;0.47;;;;;;;21.68;100.00;94803.50;5116134;28;20431;-61
2022/05/29 06:20:46;;;;;;;1.17;1.07;;;;;;;22.59;100.00;94801.22;5115247;28;20458;-61
2022/05/29 06:23:14;;;;;;;0.50;0.43;;;;;;;22.65;100.00;94803.28;5114943;28;20518;-61
2022/05/29 06:25:43;;;;;;;0.43;0.30;;;;;;;22.30;100.00;94802.56;5115163;28;20457;-61
2022/05/29 06:28:12;;;;;;;5.70;0.80;;;;;;;21.77;100.00;94800.63;5115624;28;20416;-61
2022/05/29 06:30:40;;;;;;;3.13;0.73;;;;;;;22.47;100.00;94791.31;5115139;28;20451;-61
2022/05/29 06:33:10;;;;;;;0.93;0.50;;;;;;;22.84;100.00;94790.88;5114776;28;20460;-62
2022/05/29 06:35:39;;;;;;;0.70;0.63;;;;;;;22.67;100.00;94755.06;5115196;28;20457;-62
2022/05/29 06:38:07;;;;;;;0.43;0.40;;;;;;;23.81;100.00;94782.81;5115097;28;20466;-62
2022/05/29 06:40:36;;;;;;;0.53;0.40;;;;;;;24.20;100.00;94777.94;5114184;28;20989;-61
2022/05/29 06:43:04;;;;;;;0.40;0.30;;;;;;;24.44;100.00;94782.88;5114933;28;20555;-61
2022/05/29 06:45:32;;;;;;;1.20;0.70;;;;;;;23.91;100.00;94782.19;5114934;28;20503;-61
2022/05/29 06:48:01;;;;;;;0.60;0.43;;;;;;;23.81;100.00;94777.41;5114799;28;20506;-61
2022/05/29 06:50:31;;;;;;;2.40;0.70;;;;;;;24.23;100.00;94779.94;5114500;28;20481;-61
2022/05/29 06:52:59;;;;;;;1.17;0.93;;;;;;;24.45;100.00;94783.66;5112756;28;20443;-61
2022/05/29 06:55:27;;;;;;;0.97;0.97;;;;;;;24.76;100.00;94734.44;5110599;28;20466;-61
2022/05/29 06:57:56;;;;;;;0.50;0.37;;;;;;;25.53;100.00;94766.91;5110458;28;20623;-61
2022/05/29 07:08:45;;;;;;;0.40;0.30;;;;;;;25.46;100.00;94749.78;5112847;28;20830;-62
2022/05/29 07:11:19;;;;;;;0.43;0.40;;;;;;;24.88;100.00;94761.31;5113777;28;20892;-63
2022/05/29 07:13:48;;;;;;;0.97;0.97;;;;;;;25.16;100.00;94761.56;5113720;28;20414;-63
2022/05/29 07:16:17;;;;;;;1.57;0.50;;;;;;;25.75;100.00;94751.56;5113767;28;20424;-64
2022/05/29 07:18:48;;;;;;;2.80;1.60;;;;;;;25.32;100.00;94755.09;5113532;28;20932;-65
2022/05/29 07:21:22;;;;;;;20.33;1.57;;;;;;;25.01;100.00;94759.88;5113499;28;20448;-66
2022/05/29 07:23:51;;;;;;;0.40;0.40;;;;;;;26.34;100.00;94747.56;5113285;28;20510;-67
2022/05/29 07:26:19;;;;;;;2.20;0.90;;;;;;;25.82;98.03;94743.44;5113790;28;20458;-69
2022/05/29 07:28:48;;;;;;;1.23;1.23;;;;;;;26.03;100.00;94740.84;5113532;28;20411;-70
2022/05/29 07:31:16;;;;;;;4.67;1.63;;;;;;;25.98;100.00;94735.00;5113701;28;20424;-71
2022/05/29 07:33:45;;;;;;;0.70;0.70;;;;;;;27.01;98.96;94745.06;5114051;28;20496;-72
2022/05/29 07:36:14;;;;;;;0.50;0.43;;;;;;;26.74;91.45;94713.91;5113665;28;20428;-73
2022/05/29 07:38:44;;;;;;;0.80;0.70;;;;;;;27.35;96.28;94729.88;5113562;28;20451;-73
2022/05/29 07:43:59;;;;;;;0.43;0.40;;;;;;;26.73;98.69;94668.84;5113218;28;20517;-73
2022/05/29 07:46:27;;;;;;;0.60;0.60;;;;;;;27.26;88.91;94710.47;5113544;28;20498;-74
2022/05/29 07:48:56;;;;;;;0.60;0.30;;;;;;;27.77;87.31;94709.25;5113508;28;20481;-76
2022/05/29 07:51:24;;;;;;;0.50;0.40;;;;;;;27.93;92.41;94674.94;5113546;28;20423;-77
2022/05/29 07:53:55;;;;;;;0.70;0.53;;;;;;;28.32;86.13;94710.25;5112738;28;20451;-73
2022/05/29 07:56:23;;;;;;;1.13;0.53;;;;;;;27.95;72.55;94595.56;5113721;28;20449;-70
2022/05/29 07:58:52;;;;;;;1.10;0.50;;;;;;;28.99;73.77;94698.19;5113415;28;20474;-68
2022/05/29 08:01:20;;;;;;;0.60;0.60;;;;;;;28.98;71.74;94702.88;5112587;28;20510;-66
2022/05/29 08:03:49;;;;;;;1.40;1.10;;;;;;;29.14;71.48;94702.34;5112428;28;20554;-66
2022/05/29 08:06:20;;;;;;;0.50;0.40;;;;;;;28.62;64.62;94701.53;5112871;28;20507;-66
2022/05/29 08:08:49;;;;;;;0.93;0.53;;;;;;;28.41;76.70;94562.63;5114434;28;20489;-66
2022/05/29 08:11:19;;;;;;;0.40;0.30;;;;;;;28.78;64.42;94691.72;5113838;28;20427;-65
2022/05/29 08:13:48;;;;;;;0.60;0.43;;;;;;;28.15;62.05;94687.38;5112804;28;20412;-65
2022/05/29 08:16:17;;;;;;;0.77;0.77;;;;;;;27.94;69.66;94694.81;5112296;28;20813;-66
2022/05/29 08:18:47;;;;;;;0.50;0.43;;;;;;;27.71;63.15;94687.09;5112266;28;20466;-67
2022/05/29 08:21:15;;;;;;;0.50;0.30;;;;;;;28.42;62.94;94656.84;5112024;28;20511;-66
2022/05/29 08:30:37;;;;;;;0.50;0.50;;;;;;;29.09;69.75;94678.22;5112061;28;20539;-65
2022/05/29 08:32:25;;;;;;;3.43;0.93;;;;;;;28.98;54.28;94674.78;5112140;28;20463;-64
2022/05/29 08:34:54;;;;;;;0.97;0.60;;;;;;;29.04;54.57;94665.81;5112297;28;20462;-64
2022/05/29 08:37:22;;;;;;;0.57;0.57;;;;;;;29.69;59.08;94667.53;5111708;28;20453;-64
2022/05/29 08:39:51;;;;;;;1.27;1.23;;;;;;;29.13;54.48;94657.13;5111617;28;20459;-64
2022/05/29 08:42:21;;;;;;;0.67;0.67;;;;;;;28.65;57.48;94666.06;5111542;28;20451;-64
2022/05/29 08:44:51;;;;;;;2.40;1.73;;;;;;;28.41;57.75;94666.22;5111666;28;20546;-64
2022/05/29 08:47:25;;;;;;;0.50;0.50;;;;;;;28.66;60.83;94625.94;5111980;28;20415;-65
2022/05/29 08:49:53;;;;;;;0.40;0.30;;;;;;;30.11;58.48;94656.13;5111664;28;20519;-63
2022/05/29 08:52:47;;;;;;;2.50;1.30;;;;;;;29.87;55.25;94599.06;5111742;28;20861;-63
2022/05/29 08:55:25;;;;;;;0.50;0.50;;;;;;;30.05;50.32;94600.41;5111457;28;20522;-62
2022/05/29 08:58:02;;;;;;;0.50;0.40;;;;;;;31.21;53.68;94622.50;5111469;28;20961;-62
2022/05/29 09:00:48;;;;;;;0.53;0.53;;;;;;;29.57;54.53;94584.16;5111420;28;20467;-62
2022/05/29 09:03:36;;;;;;;0.50;0.50;;;;;;;30.43;50.83;94635.84;5111013;28;20928;-63
2022/05/29 09:06:09;;;;;;;0.50;0.40;;;;;;;29.28;54.13;94617.63;5111226;28;20443;-64
2022/05/29 09:08:44;;;;;;;0.37;0.27;;;;;;;30.06;53.23;94587.47;5111762;28;20509;-64
2022/05/29 09:11:17;;;;;;;0.50;0.50;;;;;;;30.32;53.42;94575.03;5111527;28;20454;-64
2022/05/29 09:13:51;;;;;;;0.60;0.40;;;;;;;30.04;53.25;94478.59;5112068;28;20697;-64
2022/05/29 09:16:23;;;;;;;0.30;0.20;;;;;;;30.19;49.45;94622.06;5110384;28;20419;-64
2022/05/29 09:19:09;;;;;;;0.50;0.43;;;;;;;29.73;50.10;94594.50;5111575;28;20427;-64
2022/05/29 09:21:51;;;;;;;0.63;0.63;;;;;;;29.58;51.06;94625.91;5111234;28;20423;-64
2022/05/29 09:24:42;;;;;;;0.93;0.90;;;;;;;29.57;52.29;94625.13;5111135;28;20922;-64
2022/05/29 09:27:12;;;;;;;7.93;1.03;;;;;;;30.63;47.72;94612.88;5111093;28;20439;-63
2022/05/29 09:29:41;;;;;;;0.40;0.30;;;;;;;31.63;45.37;94603.75;5111311;28;20447;-63
2022/05/29 09:32:16;;;;;;;0.40;0.40;;;;;;;27.18;47.27;94082.41;5111570;28;20510;-63
2022/05/29 09:34:56;;;;;;;1.17;0.50;;;;;;;30.87;44.10;94526.09;5111657;28;20506;-63
2022/05/29 09:37:36;;;;;;;0.40;0.30;;;;;;;30.35;45.17;94557.81;5111151;28;20411;-63
2022/05/29 09:40:10;;;;;;;0.40;0.30;;;;;;;32.04;43.09;94590.41;5111075;28;20506;-63
2022/05/29 09:42:42;;;;;;;0.63;0.60;;;;;;;32.21;43.11;94600.22;5111890;28;20465;-63
2022/05/29 09:45:18;;;;;;;0.60;0.43;;;;;;;32.10;42.40;94605.19;5111950;28;20544;-61
2022/05/29 09:50:55;;;;;;;0.93;0.93;;;;;;;32.16;38.93;94594.47;5080380;28;20473;-62
2022/05/29 09:53:27;;;;;;;0.50;0.50;;;;;;;31.88;40.14;94590.31;5105278;28;21043;-63
2022/05/29 09:56:01;;;;;;;0.43;0.33;;;;;;;31.15;44.48;94582.31;5111800;28;20855;-63
2022/05/29 09:58:40;;;;;;;0.40;0.30;;;;;;;31.09;44.47;94545.69;5112090;28;20504;-63
2022/05/29 10:01:10;;;;;;;0.50;0.50;;;;;;;30.23;49.58;94580.25;5111064;28;20958;-65
2022/05/29 10:03:44;;;;;;;0.93;0.93;;;;;;;30.37;47.54;94574.59;5111171;28;20454;-64
2022/05/29 10:06:24;;;;;;;0.50;0.50;;;;;;;29.87;48.80;94571.75;5112337;28;20547;-65
2022/05/29 10:09:02;;;;;;;0.53;0.30;;;;;;;29.44;48.06;94546.88;5111589;28;20820;-64
2022/05/29 10:11:33;;;;;;;0.70;0.53;;;;;;;30.18;46.79;94567.81;5111644;28;20426;-64
2022/05/29 10:14:20;;;;;;;1.40;0.83;;;;;;;29.84;44.86;94411.38;5110799;28;20447;-63
2022/05/29 10:16:50;;;;;;;0.50;0.50;;;;;;;30.12;45.22;94537.44;5113409;28;20748;-64
2022/05/29 10:19:35;;;;;;;0.40;0.40;;;;;;;31.18;43.38;94552.16;5114548;28;20415;-64
2022/05/29 10:22:09;;;;;;;0.57;0.57;;;;;;;31.24;43.09;94523.09;5115053;28;20451;-64
2022/05/29 10:24:39;;;;;;;0.50;0.50;;;;;;;31.53;42.16;94553.47;5116655;28;20498;-63
2022/05/29 10:27:12;;;;;;;0.80;0.50;;;;;;;31.52;41.46;94556.63;5116677;28;20510;-64
2022/05/29 10:29:42;;;;;;;0.70;0.30;;;;;;;31.87;42.20;94545.72;5115125;28;20455;-65
2022/05/29 10:32:23;;;;;;;0.40;0.40;;;;;;;31.52;42.13;94531.97;5114692;28;20415;-64
2022/05/29 10:34:52;;;;;;;0.60;0.53;;;;;;;31.09;43.88;94524.56;5114369;28;20411;-65
2022/05/29 10:37:29;;;;;;;0.40;0.37;;;;;;;30.89;45.66;94512.00;5114459;28;20972;-65
2022/05/29 10:40:14;;;;;;;0.60;0.60;;;;;;;30.14;46.20;94506.94;5114549;28;20423;-66
2022/05/29 10:42:44;;;;;;;1.17;1.17;;;;;;;28.92;46.37;94358.00;5115340;28;20417;-68
2022/05/29 10:45:22;;;;;;;2.93;1.13;;;;;;;29.81;47.41;94505.84;5124950;28;20481;-70
2022/05/29 10:48:12;;;;;;;1.20;1.20;;;;;;;29.21;47.88;94336.59;5138218;28;20415;-71
2022/05/29 10:50:57;;;;;;;0.40;0.30;;;;;;;30.24;48.69;94477.88;5114054;28;20510;-64
2022/05/29 10:53:40;;;;;;;1.73;0.80;;;;;;;30.25;44.78;94424.78;5114479;28;20498;-65
2022/05/29 10:56:20;;;;;;;0.70;0.70;;;;;;;30.70;47.06;94445.88;5114577;28;20500;-62
2022/05/29 10:59:05;;;;;;;0.60;0.40;;;;;;;31.43;43.56;94461.28;5114350;28;20446;-62
2022/05/29 11:05:03;;;;;;;0.50;0.47;;;;;;;31.27;40.42;94319.63;5113499;28;20430;-61
2022/05/29 11:07:52;;;;;;;0.70;0.50;;;;;;;32.47;38.83;94461.31;5106572;28;20481;-61
2022/05/29 11:10:35;;;;;;;0.50;0.40;;;;;;;32.20;39.59;94439.66;5113735;28;20469;-61
2022/05/29 11:13:21;;;;;;;0.53;0.53;;;;;;;31.01;38.61;94435.56;5114127;28;20494;-62
2022/05/29 11:15:59;;;;;;;0.50;0.50;;;;;;;30.63;39.76;94380.38;5113611;28;20459;-61
2022/05/29 11:18:59;;;;;;;0.53;0.53;;;;;;;31.05;38.79;94428.03;5113575;28;20458;-61
2022/05/29 11:21:41;;;;;;;6.10;1.37;;;;;;;30.71;39.05;94424.78;5113478;28;20415;-62
2022/05/29 11:24:36;;;;;;;0.57;0.57;;;;;;;30.51;40.20;94426.72;5113443;28;20942;-63
2022/05/29 11:27:23;;;;;;;0.50;0.50;;;;;;;31.38;41.05;94426.97;5113137;28;20519;-62
2022/05/29 11:30:05;;;;;;;0.40;0.30;;;;;;;31.12;37.84;94407.97;5113755;28;20501;-62
2022/05/29 11:33:08;;;;;;;0.50;0.50;;;;;;;31.56;39.26;94368.31;5113675;28;20415;-62
2022/05/29 11:35:55;;;;;;;0.40;0.30;;;;;;;32.14;40.21;94383.78;5113190;28;20419;-62
2022/05/29 11:38:43;;;;;;;1.43;0.53;;;;;;;32.90;38.71;94395.91;5113309;28;20510;-62
2022/05/29 11:41:18;;;;;;;0.50;0.47;;;;;;;32.20;36.94;94345.66;5113199;28;20457;-62
2022/05/29 11:43:53;;;;;;;0.40;0.30;;;;;;;32.17;35.93;94380.19;5113282;28;20450;-61
2022/05/29 11:52:11;;;;;;;0.50;0.50;;;;;;;31.29;36.23;94365.75;5112804;28;20992;-62
2022/05/29 11:54:46;;;;;;;1.10;0.60;;;;;;;31.61;36.04;94367.81;5112738;28;20899;-62
2022/05/29 11:57:19;;;;;;;0.83;0.40;;;;;;;31.35;37.15;94372.25;5112770;28;20888;-62
2022/05/29 11:59:57;;;;;;;8.23;0.70;;;;;;;31.36;37.85;94234.94;5112708;28;20462;-62
2022/05/29 12:02:33;;;;;;;0.50;0.43;;;;;;;31.13;37.25;94339.09;5112437;28;20415;-62
2022/05/29 12:05:13;;;;;;;0.40;0.30;;;;;;;32.23;36.57;94311.88;5112610;28;20422;-62
2022/05/29 12:07:47;;;;;;;2.10;0.97;;;;;;;32.97;36.46;94340.03;5112308;28;20864;-62
2022/05/29 12:10:22;;;;;;;0.57;0.57;;;;;;;32.67;38.17;94302.06;5112665;28;20423;-61
2022/05/29 12:12:58;;;;;;;0.43;0.40;;;;;;;33.60;34.24;94329.19;5112534;28;20470;-61
2022/05/29 12:15:26;;;;;;;1.47;0.30;;;;;;;33.18;33.82;94304.53;5112155;28;20732;-60
2022/05/29 12:18:03;;;;;;;0.40;0.30;;;;;;;33.07;35.42;94342.50;5112416;28;20423;-61
2022/05/29 12:20:41;;;;;;;0.80;0.77;;;;;;;33.30;35.89;94322.22;5112009;28;20450;-61
2022/05/29 12:23:31;;;;;;;0.97;0.70;;;;;;;31.86;35.53;94291.25;5111957;28;20558;-62
2022/05/29 12:26:06;;;;;;;0.67;0.50;;;;;;;32.38;36.74;94330.28;5111999;28;20541;-62
2022/05/29 12:28:43;;;;;;;0.40;0.33;;;;;;;31.19;37.18;94258.03;5112075;28;20434;-62
2022/05/29 12:31:19;;;;;;;21.27;1.10;;;;;;;30.97;39.37;94324.63;5112149;28;20450;-63
2022/05/29 12:33:49;;;;;;;0.70;0.70;;;;;;;30.23;39.11;94276.81;5111766;28;20438;-63
2022/05/29 12:36:27;;;;;;;0.47;0.33;;;;;;;30.38;39.64;94330.06;5111704;28;20983;-63
2022/05/29 12:39:05;;;;;;;3.87;1.00;;;;;;;29.72;39.24;94224.25;5111516;28;20419;-64